Allston, Massachusetts
Current Conditions -  °F | °C
As of 3:54 AM on Thursday 27 Nov 2014 (Local Time) from KBOS Reporting Station
Light Snow Light Snow  
Wind Chill: 25°   Ceiling: 4500
Heat Index: 34°   Visibility: 7mi
Dew Point: 32°   Wind: 13mph
Humidity: 92%   Direction: 320°NW
Pressure: 29.78"   Gusts: NA
Location:  42.36°N, 71.13°W
Report Text: KBOS 270854Z 32011KT 7SM -SNRA FEW011 SCT024 OVC045 01/00 A2978 RMK AO2 RAB38 SLP082 P0001 60002 T00110000 53024 $
Loading
Personal Weather Stations






























Interactive Weather Map New forecast layout! Learn more

10-Day Weather Forecast

Advertisements
Track Severe Weather on mobile